.
WxDataArchive / Data Records for 2012-05-01
2012-04-30 May 2012 2012-05-02

Data Records for Tuesday, 01 May 2012

Time	Temp	Chill	HIndex	Humid	Dewpt	 Wind 	HiWind	WindDir	Rain 	Barom 
-----	----	-----	------	-----	-----	------	------	-------	-----	----- 
00:00	61.0	61.0	61.0	96	59.8	0	2	315	0.00	29.901 
00:05	61.0	61.0	61.0	96	59.8	0	1	315	0.00	29.901 
00:10	61.0	61.0	61.0	96	59.8	0	3	315	0.00	29.901 
00:15	60.9	60.9	60.9	96	59.7	0	1	315	0.00	29.896 
00:20	60.9	60.9	60.9	96	59.7	0	2	315	0.00	29.896 
00:25	60.9	60.9	60.9	96	59.7	2	5	315	0.00	29.896 
00:30	60.5	60.5	60.5	96	59.4	2	5	292	0.00	29.906 
00:35	60.1	60.1	60.1	96	59.0	1	4	315	0.00	29.906 
00:40	59.8	59.8	59.8	96	58.7	1	3	315	0.00	29.906 
00:45	59.3	59.3	59.3	96	58.2	2	5	315	0.00	29.912 
00:50	59.0	59.0	59.0	96	57.9	1	3	338	0.00	29.912 
00:55	58.9	58.9	58.9	96	57.8	1	4	338	0.00	29.912 
01:00	58.7	58.7	58.7	96	57.6	1	4	338	0.00	29.913 
01:05	58.6	58.6	58.6	96	57.5	1	3	338	0.00	29.913 
01:10	58.4	58.4	58.4	96	57.3	2	4	315	0.00	29.913 
01:15	58.4	58.4	58.4	96	57.3	1	3	315	0.00	29.916 
01:20	58.3	58.3	58.3	96	57.2	0	3	315	0.00	29.916 
01:25	58.1	58.1	58.1	96	57.0	1	3	315	0.00	29.916 
01:30	58.1	58.1	58.1	96	57.0	1	3	315	0.00	29.915 
01:35	58.1	58.1	58.1	96	57.0	1	3	315	0.00	29.915 
01:40	58.0	58.0	58.0	96	56.9	0	1	315	0.00	29.915 
01:45	57.8	57.8	57.8	96	56.7	1	5	270	0.00	29.916 
01:50	57.8	57.8	57.8	96	56.7	1	3	270	0.00	29.916 
01:55	57.6	57.6	57.6	96	56.5	0	2	270	0.00	29.916 
02:00	57.5	57.5	57.5	96	56.4	1	4	270	0.00	29.917 
02:05	57.3	57.3	57.3	96	56.2	1	3	270	0.00	29.917 
02:10	57.2	57.2	57.2	96	56.1	0	2	270	0.00	29.917 
02:15	57.2	57.2	57.2	96	56.1	1	3	292	0.00	29.925 
02:20	57.0	57.0	57.0	96	55.9	1	3	292	0.00	29.925 
02:25	57.0	57.0	57.0	96	55.9	0	1	292	0.00	29.925 
02:30	56.9	56.9	56.9	96	55.8	0	1	292	0.00	29.924 
02:35	56.9	56.9	56.9	96	55.8	0	1	292	0.00	29.924 
02:40	56.9	56.9	56.9	96	55.8	0	2	292	0.00	29.924 
02:45	56.7	56.7	56.7	96	55.6	0	1	292	0.00	29.929 
02:50	56.7	56.7	56.7	96	55.6	1	2	292	0.00	29.929 
02:55	56.7	56.7	56.7	96	55.6	0	2	292	0.00	29.929 
03:00	56.7	56.7	56.7	96	55.6	0	1	292	0.00	29.932 
03:05	56.6	56.6	56.6	96	55.5	0	1	292	0.00	29.932 
03:10	56.5	56.5	56.5	96	55.4	0	1	292	0.00	29.932 
03:15	56.3	56.3	56.3	96	55.2	0	2	292	0.00	29.938 
03:20	56.2	56.2	56.2	96	55.1	0	2	292	0.00	29.938 
03:25	56.2	56.2	56.2	96	55.1	0	1	292	0.00	29.938 
03:30	56.0	56.0	56.0	96	54.9	0	1	292	0.00	29.947 
03:35	56.0	56.0	56.0	96	54.9	0	1	292	0.00	29.947 
03:40	55.9	55.9	55.9	96	54.8	0	1	292	0.00	29.947 
03:45	55.9	55.9	55.9	96	54.8	0	1	292	0.00	29.948 
03:50	55.9	55.9	55.9	96	54.8	0	1	292	0.00	29.948 
03:55	55.9	55.9	55.9	96	54.8	0	0	---	0.00	29.948 
04:00	55.9	55.9	55.9	96	54.8	0	0	---	0.00	29.950 
04:05	55.9	55.9	55.9	96	54.8	0	1	292	0.00	29.950 
04:10	55.9	55.9	55.9	96	54.8	0	1	292	0.00	29.950 
04:15	55.7	55.7	55.7	96	54.6	0	0	---	0.00	29.955 
04:20	55.7	55.7	55.7	96	54.6	0	0	---	0.00	29.955 
04:25	55.7	55.7	55.7	96	54.6	0	0	---	0.00	29.955 
04:30	55.7	55.7	55.7	96	54.6	0	0	---	0.00	29.971 
04:35	55.7	55.7	55.7	96	54.6	0	1	292	0.00	29.971 
04:40	55.6	55.6	55.6	96	54.5	0	0	---	0.00	29.971 
04:45	55.6	55.6	55.6	96	54.5	0	0	---	0.00	29.978 
04:50	55.6	55.6	55.6	96	54.5	0	0	---	0.00	29.978 
04:55	55.4	55.4	55.4	96	54.3	0	0	---	0.00	29.978 
05:00	55.6	55.6	55.6	96	54.5	0	1	292	0.00	29.988 
05:05	55.4	55.4	55.4	96	54.3	0	1	292	0.00	29.988 
05:10	55.4	55.4	55.4	96	54.3	0	0	---	0.00	29.988 
05:15	55.4	55.4	55.4	96	54.3	0	0	---	0.00	29.994 
05:20	55.4	55.4	55.4	96	54.3	0	1	292	0.00	29.994 
05:25	55.4	55.4	55.4	96	54.3	0	0	---	0.00	29.994 
05:30	55.3	55.3	55.3	96	54.2	0	0	---	0.00	29.995 
05:35	55.3	55.3	55.3	96	54.2	0	0	---	0.00	29.995 
05:40	55.3	55.3	55.3	96	54.2	0	1	292	0.00	29.995 
05:45	55.3	55.3	55.3	96	54.2	0	0	---	0.00	29.994 
05:50	55.1	55.1	55.1	96	54.0	0	0	---	0.00	29.994 
05:55	55.1	55.1	55.1	96	54.0	0	0	---	0.00	29.994 
06:00	55.1	55.1	55.1	96	54.0	0	0	---	0.00	30.005 
06:05	55.1	55.1	55.1	96	54.0	0	0	---	0.00	30.005 
06:10	55.1	55.1	55.1	96	54.0	0	0	---	0.00	30.005 
06:15	55.1	55.1	55.1	96	54.0	0	0	---	0.00	30.008 
06:20	55.0	55.0	55.0	96	53.9	0	0	---	0.00	30.008 
06:25	54.8	54.8	54.8	96	53.7	0	0	---	0.00	30.008 
06:30	54.8	54.8	54.8	96	53.7	0	1	292	0.00	30.009 
06:35	54.7	54.7	54.7	96	53.6	0	0	---	0.00	30.009 
06:40	54.7	54.7	54.7	96	53.6	0	0	---	0.00	30.009 
06:45	54.7	54.7	54.7	96	53.6	0	0	---	0.00	30.008 
06:50	54.7	54.7	54.7	96	53.6	0	0	---	0.00	30.008 
06:55	54.5	54.5	54.5	96	53.4	0	1	292	0.00	30.008 
07:00	54.5	54.5	54.5	96	53.4	0	0	---	0.00	30.020 
07:05	54.5	54.5	54.5	96	53.4	0	0	---	0.00	30.020 
07:10	54.5	54.5	54.5	96	53.4	0	0	---	0.00	30.020 
07:15	54.5	54.5	54.5	96	53.4	0	0	---	0.00	30.022 
07:20	54.5	54.5	54.5	96	53.4	0	0	---	0.00	30.022 
07:25	54.7	54.7	54.7	96	53.6	0	0	---	0.00	30.022 
07:30	54.7	54.7	54.7	96	53.6	0	0	---	0.00	30.024 
07:35	54.8	54.8	54.8	96	53.7	0	0	---	0.00	30.024 
07:40	54.8	54.8	54.8	96	53.7	0	0	---	0.00	30.024 
07:45	54.8	54.8	54.8	96	53.7	0	0	---	0.00	30.035 
07:50	55.0	55.0	55.0	96	53.9	0	1	292	0.00	30.035 
07:55	54.8	54.8	54.8	96	53.7	0	1	292	0.00	30.035 
08:00	55.0	55.0	55.0	96	53.9	0	0	---	0.00	30.041 
08:05	55.0	55.0	55.0	96	53.9	0	0	---	0.00	30.041 
08:10	55.0	55.0	55.0	96	53.9	0	0	---	0.00	30.041 
08:15	55.0	55.0	55.0	96	53.9	0	0	---	0.00	30.044 
08:20	55.1	55.1	55.1	96	54.0	0	1	292	0.00	30.044 
08:25	55.4	55.4	55.4	96	54.3	0	0	---	0.00	30.044 
08:30	55.7	55.7	55.7	96	54.6	0	1	292	0.00	30.042 
08:35	55.9	55.9	55.9	96	54.8	0	0	---	0.00	30.042 
08:40	55.9	55.9	55.9	96	54.8	0	1	292	0.00	30.042 
08:45	56.0	56.0	56.0	96	54.9	0	1	292	0.00	30.041 
08:50	56.2	56.2	56.2	96	55.1	0	1	292	0.00	30.041 
08:55	55.9	55.9	55.9	95	54.5	0	2	292	0.00	30.041 
09:00	56.3	56.3	56.3	96	55.2	0	2	292	0.00	30.047 
09:05	56.5	56.5	56.5	95	55.1	0	2	292	0.00	30.047 
09:10	56.5	56.5	56.5	95	55.1	0	2	292	0.00	30.047 
09:15	56.6	56.6	56.6	94	54.9	0	2	292	0.00	30.052 
09:20	56.7	56.7	56.7	93	54.7	0	0	---	0.00	30.052 
09:25	56.7	56.7	56.7	93	54.7	0	0	---	0.00	30.052 
09:30	56.6	56.6	56.6	92	54.3	0	1	292	0.00	30.053 
09:35	56.5	56.5	56.5	92	54.2	0	1	292	0.00	30.053 
09:40	56.5	56.5	56.5	92	54.2	0	0	---	0.00	30.053 
09:45	56.5	56.5	56.5	92	54.2	0	1	292	0.00	30.054 
09:50	56.9	56.9	56.9	91	54.3	0	2	292	0.00	30.054 
09:55	57.5	57.5	57.5	89	54.3	0	1	292	0.00	30.054 
10:00	57.8	57.8	57.8	87	54.0	1	2	292	0.00	30.062 
10:05	58.1	58.1	58.1	88	54.6	0	1	292	0.00	30.062 
10:10	58.3	58.3	58.3	85	53.8	0	2	292	0.00	30.062 
10:15	58.6	58.6	58.6	85	54.1	0	1	292	0.00	30.054 
10:20	58.9	58.9	58.9	84	54.1	0	2	292	0.00	30.054 
10:25	59.0	59.0	59.0	82	53.5	0	0	---	0.00	30.054 
10:30	59.2	59.2	59.2	82	53.7	0	1	292	0.00	30.042 
10:35	59.3	59.3	59.3	81	53.5	0	1	292	0.00	30.042 
10:40	59.3	59.3	59.3	80	53.1	0	1	292	0.00	30.042 
10:45	59.5	59.5	59.5	80	53.3	0	1	292	0.00	30.027 
10:50	59.6	59.6	59.6	80	53.4	0	0	---	0.00	30.027 
10:55	59.6	59.6	59.6	79	53.1	0	3	292	0.00	30.027 
11:00	59.6	59.6	59.6	79	53.1	0	2	292	0.00	30.024 
11:05	59.9	59.9	59.9	79	53.4	0	3	292	0.00	30.024 
11:10	59.9	59.9	59.9	80	53.7	1	3	292	0.00	30.024 
11:15	60.2	60.2	60.2	78	53.3	0	4	90	0.00	30.036 
11:20	60.4	60.4	60.4	77	53.2	0	2	90	0.00	30.036 
11:25	60.7	60.7	60.7	76	53.1	1	3	90	0.00	30.036 
11:30	60.9	60.9	60.9	74	52.6	1	4	112	0.00	30.036 
11:35	61.0	61.0	61.0	76	53.4	1	3	112	0.00	30.036 
11:40	61.3	61.3	61.3	74	52.9	1	3	112	0.00	30.036 
11:45	61.5	61.5	61.5	73	52.8	1	4	112	0.00	30.040 
11:50	61.8	61.8	61.8	75	53.8	0	1	112	0.00	30.040 
11:55	62.0	62.0	62.0	72	52.9	1	3	112	0.00	30.040 
12:00	62.0	62.0	62.0	74	53.6	1	3	112	0.00	30.036 
12:05	62.1	62.1	62.1	74	53.7	1	2	112	0.00	30.036 
12:10	62.3	62.3	62.3	74	53.9	1	4	112	0.00	30.036 
12:15	62.7	62.7	62.7	74	54.3	1	3	112	0.00	30.034 
12:20	63.1	63.1	63.1	73	54.3	1	4	112	0.00	30.034 
12:25	63.5	63.5	63.5	73	54.7	1	3	112	0.00	30.034 
12:30	64.0	64.0	64.0	71	54.4	0	1	112	0.00	30.026 
12:35	64.2	64.2	64.2	71	54.6	2	4	112	0.00	30.026 
12:40	64.0	64.0	64.0	72	54.8	3	5	112	0.00	30.026 
12:45	64.3	64.3	64.3	70	54.3	1	6	68	0.00	30.023 
12:50	64.7	64.7	64.7	71	55.1	1	3	68	0.00	30.023 
12:55	65.0	65.0	65.0	69	54.6	1	3	90	0.00	30.023 
13:00	65.2	65.2	65.2	71	55.6	1	3	90	0.00	30.031 
13:05	65.5	65.5	65.5	69	55.1	1	3	90	0.00	30.031 
13:10	65.5	65.5	65.5	69	55.1	1	3	90	0.00	30.031 
13:15	65.6	65.6	65.6	67	54.3	1	3	90	0.00	30.021 
13:20	65.8	65.8	65.8	69	55.3	1	2	90	0.00	30.021 
13:25	65.8	65.8	65.8	68	54.9	1	3	90	0.00	30.021 
13:30	65.6	65.6	65.6	69	55.1	1	3	90	0.00	30.018 
13:35	65.8	65.8	65.8	70	55.7	0	3	90	0.00	30.018 
13:40	65.6	65.6	65.6	69	55.1	1	2	90	0.00	30.018 
13:45	65.8	65.8	65.8	69	55.3	1	3	90	0.00	30.021 
13:50	65.8	65.8	65.8	69	55.3	1	4	90	0.00	30.021 
13:55	65.8	65.8	65.8	70	55.7	1	2	90	0.00	30.021 
14:00	65.6	65.6	65.6	70	55.5	1	3	90	0.00	30.021 
14:05	65.5	65.5	65.5	71	55.8	1	4	90	0.00	30.021 
14:10	65.5	65.5	65.5	71	55.8	1	4	90	0.00	30.021 
14:15	65.5	65.5	65.5	71	55.8	1	3	135	0.00	30.030 
14:20	65.3	65.3	65.3	71	55.6	1	3	135	0.00	30.030 
14:25	65.3	65.3	65.3	72	56.0	1	3	112	0.00	30.030 
14:30	65.3	65.3	65.3	72	56.0	0	4	112	0.00	30.044 
14:35	65.3	65.3	65.3	73	56.4	0	2	112	0.00	30.044 
14:40	65.3	65.3	65.3	73	56.4	0	3	248	0.00	30.044 
14:45	65.2	65.2	65.2	72	55.9	1	5	248	0.00	30.052 
14:50	65.2	65.2	65.2	72	55.9	1	4	270	0.00	30.052 
14:55	65.0	65.0	65.0	74	56.5	1	5	270	0.00	30.052 
15:00	65.0	65.0	65.0	75	56.9	1	4	45	0.00	30.037 
15:05	64.8	64.8	64.8	75	56.7	1	6	112	0.00	30.037 
15:10	64.8	64.8	64.8	75	56.7	1	5	112	0.00	30.037 
15:15	65.0	65.0	65.0	76	57.2	0	2	112	0.00	30.018 
15:20	65.0	65.0	65.0	76	57.2	0	3	112	0.00	30.018 
15:25	64.8	64.8	64.8	77	57.4	1	2	112	0.00	30.018 
15:30	64.8	64.8	64.8	77	57.4	1	2	112	0.00	29.985 
15:35	64.7	64.7	64.7	78	57.7	1	5	90	0.00	29.985 
15:40	64.5	64.5	64.5	79	57.8	2	5	90	0.00	29.985 
15:45	64.2	64.2	64.2	80	57.9	2	5	90	0.01	29.952 
15:50	64.2	64.2	64.2	83	58.9	2	5	90	0.00	29.952 
15:55	64.2	64.2	64.2	82	58.6	0	1	90	0.00	29.952 
16:00	64.3	64.3	64.3	83	59.0	0	1	90	0.00	29.939 
16:05	64.3	64.3	64.3	81	58.3	1	3	90	0.00	29.939 
16:10	64.3	64.3	64.3	81	58.3	1	3	90	0.00	29.939 
16:15	64.5	64.5	64.5	82	58.9	0	2	90	0.00	29.939 
16:20	64.7	64.7	64.7	81	58.7	0	0	---	0.00	29.939 
16:25	64.8	64.8	64.8	81	58.8	0	2	90	0.00	29.939 
16:30	64.8	64.8	64.8	81	58.8	0	2	90	0.00	29.946 
16:35	64.8	64.8	64.8	81	58.8	1	5	90	0.00	29.946 
16:40	64.7	64.7	64.7	82	59.1	1	3	90	0.00	29.946 
16:45	64.7	64.7	64.7	83	59.4	1	3	90	0.00	29.922 
16:50	64.5	64.5	64.5	83	59.2	0	3	90	0.00	29.922 
16:55	64.8	64.8	64.8	83	59.5	0	2	90	0.00	29.922 
17:00	65.2	65.2	65.2	83	59.9	1	4	90	0.00	29.923 
17:05	65.3	65.3	65.3	82	59.7	1	5	90	0.00	29.923 
17:10	65.3	65.3	65.3	82	59.7	1	4	112	0.00	29.923 
17:15	65.3	65.3	65.3	81	59.3	1	4	112	0.00	29.929 
17:20	65.2	65.2	65.2	79	58.5	1	7	90	0.00	29.929 
17:25	65.2	65.2	65.2	78	58.2	1	3	112	0.00	29.929 
17:30	65.2	65.2	65.2	79	58.5	1	4	90	0.00	29.940 
17:35	65.3	65.3	65.3	80	59.0	1	4	112	0.00	29.940 
17:40	65.3	65.3	65.3	81	59.3	1	3	112	0.00	29.940 
17:45	65.5	65.5	65.5	80	59.2	2	4	112	0.00	29.927 
17:50	65.3	65.3	65.3	74	56.8	2	6	112	0.00	29.927 
17:55	65.5	65.5	65.5	74	57.0	2	9	90	0.00	29.927 
18:00	65.6	65.6	65.6	76	57.8	1	3	90	0.00	29.933 
18:05	65.6	65.6	65.6	76	57.8	1	3	90	0.00	29.933 
18:10	65.6	65.6	65.6	77	58.2	2	9	90	0.00	29.933 
18:15	65.3	65.3	65.3	79	58.6	2	6	90	0.00	29.923 
18:20	65.0	65.0	65.0	79	58.3	1	4	90	0.00	29.923 
18:25	65.0	65.0	65.0	80	58.7	1	5	112	0.00	29.923 
18:30	65.0	65.0	65.0	80	58.7	1	3	112	0.00	29.919 
18:35	65.0	65.0	65.0	80	58.7	1	3	90	0.00	29.919 
18:40	65.0	65.0	65.0	80	58.7	1	4	90	0.00	29.919 
18:45	65.0	65.0	65.0	80	58.7	1	4	90	0.00	29.908 
18:50	64.8	64.8	64.8	81	58.8	1	4	112	0.00	29.908 
18:55	64.5	64.5	64.5	81	58.5	1	5	112	0.00	29.908 
19:00	64.3	64.3	64.3	81	58.3	2	4	112	0.00	29.907 
19:05	64.0	64.0	64.0	81	58.0	2	4	112	0.00	29.907 
19:10	63.9	63.9	63.9	81	57.9	1	4	112	0.00	29.907 
19:15	63.7	63.7	63.7	82	58.1	1	2	112	0.00	29.904 
19:20	63.7	63.7	63.7	82	58.1	1	5	112	0.00	29.904 
19:25	63.5	63.5	63.5	82	57.9	1	3	112	0.00	29.904 
19:30	63.4	63.4	63.4	83	58.1	1	3	112	0.00	29.900 
19:35	63.4	63.4	63.4	83	58.1	2	5	112	0.00	29.900 
19:40	63.2	63.2	63.2	83	57.9	1	4	90	0.00	29.900 
19:45	63.1	63.1	63.1	83	57.8	1	4	90	0.00	29.900 
19:50	63.1	63.1	63.1	83	57.8	0	2	90	0.00	29.900 
19:55	62.9	62.9	62.9	83	57.7	1	4	90	0.00	29.900 
20:00	62.7	62.7	62.7	83	57.5	0	1	90	0.00	29.905 
20:05	62.6	62.6	62.6	83	57.4	1	3	90	0.00	29.905 
20:10	62.4	62.4	62.4	83	57.2	1	3	90	0.00	29.905 
20:15	62.3	62.3	62.3	83	57.1	1	4	90	0.00	29.899 
20:20	62.1	62.1	62.1	83	56.9	1	3	90	0.00	29.899 
20:25	62.0	62.0	62.0	84	57.1	1	3	90	0.00	29.899 
20:30	61.8	61.8	61.8	84	56.9	2	4	90	0.00	29.893 
20:35	61.8	61.8	61.8	84	56.9	1	3	90	0.00	29.893 
20:40	61.6	61.6	61.6	84	56.7	1	4	90	0.00	29.893 
20:45	61.5	61.5	61.5	84	56.6	1	3	90	0.00	29.899 
20:50	61.5	61.5	61.5	84	56.6	0	2	90	0.00	29.899 
20:55	61.3	61.3	61.3	85	56.7	1	3	90	0.00	29.899 
21:00	61.3	61.3	61.3	85	56.7	1	3	90	0.00	29.899 
21:05	61.2	61.2	61.2	86	57.0	1	3	90	0.00	29.899 
21:10	61.2	61.2	61.2	87	57.3	0	2	90	0.00	29.899 
21:15	60.9	60.9	60.9	87	57.0	1	3	90	0.01	29.897 
21:20	60.7	60.7	60.7	88	57.1	1	4	90	0.00	29.897 
21:25	60.5	60.5	60.5	89	57.2	1	3	90	0.00	29.897 
21:30	60.4	60.4	60.4	89	57.1	1	3	90	0.00	29.900 
21:35	60.4	60.4	60.4	90	57.4	1	3	90	0.00	29.900 
21:40	60.2	60.2	60.2	90	57.3	0	2	90	0.00	29.900 
21:45	60.2	60.2	60.2	90	57.3	1	3	90	0.00	29.907 
21:50	60.2	60.2	60.2	91	57.6	1	3	90	0.00	29.907 
21:55	60.1	60.1	60.1	91	57.5	1	4	90	0.00	29.907 
22:00	59.9	59.9	59.9	91	57.3	1	3	90	0.00	29.907 
22:05	59.9	59.9	59.9	91	57.3	1	4	90	0.01	29.907 
22:10	59.9	59.9	59.9	91	57.3	2	6	90	0.00	29.907 
22:15	59.8	59.8	59.8	92	57.5	2	4	90	0.00	29.898 
22:20	59.8	59.8	59.8	92	57.5	2	4	90	0.00	29.898 
22:25	59.6	59.6	59.6	92	57.3	2	5	90	0.00	29.898 
22:30	59.6	59.6	59.6	92	57.3	1	4	90	0.00	29.905 
22:35	59.6	59.6	59.6	92	57.3	1	3	90	0.00	29.905 
22:40	59.8	59.8	59.8	92	57.5	1	3	90	0.01	29.905 
22:45	59.6	59.6	59.6	92	57.3	1	4	90	0.00	29.899 
22:50	59.6	59.6	59.6	93	57.6	1	3	90	0.00	29.899 
22:55	59.6	59.6	59.6	93	57.6	2	4	90	0.00	29.899 
23:00	59.6	59.6	59.6	93	57.6	2	4	90	0.00	29.892 
23:05	59.6	59.6	59.6	93	57.6	1	3	90	0.00	29.892 
23:10	59.6	59.6	59.6	93	57.6	2	4	90	0.00	29.892 
23:15	59.6	59.6	59.6	93	57.6	1	5	90	0.00	29.898 
23:20	59.5	59.5	59.5	93	57.5	0	2	90	0.08	29.898 
23:25	59.5	59.5	59.5	93	57.5	1	3	90	0.03	29.898 
23:30	59.3	59.3	59.3	93	57.3	1	3	90	0.02	29.889 
23:35	59.2	59.2	59.2	94	57.5	0	3	68	0.00	29.889 
23:40	59.2	59.2	59.2	94	57.5	1	3	68	0.01	29.889 
23:45	59.0	59.0	59.0	94	57.3	1	3	68	0.01	29.900 
23:50	59.0	59.0	59.0	94	57.3	2	4	68	0.01	29.900 
23:55	59.0	59.0	59.0	94	57.3	1	5	90	0.02	29.900 

CoCoRaHS
IN-AL-39
A2 Web Hosting
Creative Commons License
GoDaddy
search engine by freefind advanced

loaded 2018-11-19 19:10:35 • last modified 2010-11-18 10:43:29
Privacy PolicyDisclaimer
• wx.awcolley.com is powered by PmWiki v.2002016 •
• all content (unless otherwise noted) © 2018 A W Colley